createdAt,value
2023-03-29T00:01:06.103Z,71.87
2023-03-29T00:04:20.018Z,72.12
2023-03-29T00:07:33.770Z,72.85
2023-03-29T00:10:46.344Z,73.14
2023-03-29T00:13:58.493Z,73.43
2023-03-29T00:17:12.948Z,73.99
2023-03-29T00:20:25.763Z,73.80
2023-03-29T00:23:38.033Z,74.01
2023-03-29T00:26:50.198Z,74.24
2023-03-29T00:30:04.359Z,74.50
2023-03-29T00:33:16.695Z,74.27
2023-03-29T00:36:28.825Z,74.81
2023-03-29T00:39:44.149Z,75.24
2023-03-29T00:42:57.328Z,75.65
2023-03-29T00:46:11.330Z,76.33
2023-03-29T00:49:23.608Z,75.71
2023-03-29T00:52:39.029Z,75.55
2023-03-29T00:55:56.886Z,76.36
2023-03-29T00:59:11.879Z,76.19
2023-03-29T01:02:27.584Z,76.41
2023-03-29T01:05:44.645Z,76.06
2023-03-29T01:09:01.387Z,76.09
2023-03-29T01:12:20.977Z,76.79
2023-03-29T01:15:34.993Z,77.02
2023-03-29T01:18:47.236Z,76.15
2023-03-29T01:22:05.047Z,76.24
2023-03-29T01:25:25.565Z,76.78
2023-03-29T01:28:42.711Z,77.19
2023-03-29T01:31:59.239Z,76.81
2023-03-29T01:35:17.999Z,77.07
2023-03-29T01:38:34.868Z,77.24
2023-03-29T01:41:54.251Z,76.77
2023-03-29T01:45:14.069Z,77.00
2023-03-29T01:48:31.868Z,77.30
2023-03-29T01:51:48.374Z,77.12
2023-03-29T01:55:07.205Z,77.27
2023-03-29T01:58:22.725Z,78.52
2023-03-29T02:01:39.169Z,77.42
2023-03-29T02:04:56.351Z,78.46
2023-03-29T02:08:11.865Z,77.97
2023-03-29T02:11:26.188Z,77.81
2023-03-29T02:14:39.818Z,78.88
2023-03-29T02:17:53.561Z,79.08
2023-03-29T02:21:05.830Z,80.33
2023-03-29T02:24:22.513Z,80.73
2023-03-29T02:27:37.772Z,81.36
2023-03-29T02:30:57.392Z,82.20
2023-03-29T02:34:16.213Z,82.11
2023-03-29T02:37:30.573Z,83.42
2023-03-29T02:40:45.570Z,83.90
2023-03-29T02:43:58.776Z,84.61
2023-03-29T02:47:16.920Z,85.17
2023-03-29T02:50:30.601Z,85.70
2023-03-29T02:53:46.682Z,85.45
2023-03-29T02:57:04.054Z,85.74
2023-03-29T03:00:22.537Z,85.79
2023-03-29T03:03:36.109Z,85.89
2023-03-29T03:06:49.188Z,86.20
2023-03-29T03:10:01.309Z,86.40
2023-03-29T03:13:14.059Z,86.06
2023-03-29T03:16:26.634Z,85.64
2023-03-29T03:19:39.897Z,86.03
2023-03-29T03:22:54.267Z,86.13
2023-03-29T03:26:06.437Z,85.85
2023-03-29T03:29:19.873Z,85.00
2023-03-29T03:32:50.070Z,85.47
2023-03-29T03:36:22.992Z,84.97
2023-03-29T03:39:37.366Z,85.47
2023-03-29T03:42:50.064Z,84.72
2023-03-29T03:46:02.910Z,85.02
2023-03-29T03:49:16.871Z,84.39
2023-03-29T03:52:30.119Z,84.49
2023-03-29T03:55:43.188Z,84.33
2023-03-29T03:58:57.454Z,84.87
2023-03-29T04:02:10.714Z,85.12
2023-03-29T04:05:24.067Z,84.69
2023-03-29T04:08:37.041Z,84.27
2023-03-29T04:12:00.107Z,84.49
2023-03-29T04:15:15.009Z,84.85
2023-03-29T04:18:30.227Z,85.19
2023-03-29T04:21:46.345Z,84.71
2023-03-29T04:24:58.517Z,84.54
2023-03-29T04:28:17.506Z,84.42
2023-03-29T04:31:32.376Z,84.21
2023-03-29T04:35:02.607Z,84.29
2023-03-29T04:38:15.136Z,84.29
2023-03-29T04:41:29.292Z,84.65
2023-03-29T04:44:49.200Z,84.16
2023-03-29T04:48:06.003Z,83.45
2023-03-29T04:51:20.369Z,82.20
2023-03-29T04:54:34.698Z,82.06
2023-03-29T04:57:48.863Z,81.50
2023-03-29T05:01:06.085Z,81.66
2023-03-29T05:04:23.195Z,81.16
2023-03-29T05:07:37.612Z,80.61
2023-03-29T05:10:52.348Z,80.49
2023-03-29T05:14:07.197Z,80.30
2023-03-29T05:17:20.637Z,79.36
2023-03-29T05:20:34.088Z,79.37
2023-03-29T05:23:46.693Z,78.63
2023-03-29T05:27:02.834Z,78.73
2023-03-29T05:30:19.765Z,78.01
2023-03-29T05:33:37.244Z,77.88
2023-03-29T05:36:50.354Z,78.04
2023-03-29T05:40:08.068Z,77.11
2023-03-29T05:43:34.290Z,76.18
2023-03-29T05:54:08.801Z,74.02
2023-03-29T05:57:21.818Z,71.28
2023-03-29T06:00:36.924Z,68.87
2023-03-29T06:03:51.424Z,65.97
2023-03-29T06:07:05.909Z,64.17
2023-03-29T06:10:20.591Z,62.68
2023-03-29T06:13:37.286Z,61.98
2023-03-29T06:16:50.590Z,60.39
2023-03-29T06:20:06.500Z,59.27
2023-03-29T06:23:19.968Z,57.39
2023-03-29T06:26:33.160Z,55.77
2023-03-29T09:30:53.673Z,29.17
2023-03-29T09:34:09.453Z,30.29
2023-03-29T09:37:30.236Z,28.42
2023-03-29T09:40:49.181Z,28.66
2023-03-29T09:44:07.346Z,27.83
2023-03-29T09:47:28.387Z,28.35
2023-03-29T09:50:47.000Z,28.91
2023-03-29T09:54:01.252Z,29.47
2023-03-29T09:57:24.269Z,28.90
2023-03-29T10:00:36.957Z,28.56
2023-03-29T10:03:54.635Z,27.99
2023-03-29T10:07:08.874Z,28.16
2023-03-29T10:10:32.218Z,28.71
2023-03-29T10:13:53.837Z,29.67
2023-03-29T10:17:08.864Z,27.66
2023-03-29T10:20:25.049Z,28.62
2023-03-29T10:23:41.324Z,28.77
2023-03-29T10:26:57.128Z,27.64
2023-03-29T10:30:18.708Z,27.90
2023-03-29T10:33:35.459Z,27.57
2023-03-29T10:36:52.447Z,27.42
2023-03-29T10:43:26.797Z,27.77
2023-03-29T10:46:46.713Z,29.66
2023-03-29T10:50:04.608Z,30.06
2023-03-29T10:53:25.587Z,30.64
2023-03-29T10:56:52.371Z,28.70
2023-03-29T11:00:11.042Z,27.98
2023-03-29T11:03:51.679Z,30.70
2023-03-29T11:07:23.447Z,31.03
2023-03-29T11:10:46.229Z,29.02
2023-03-29T11:14:04.072Z,28.39
2023-03-29T11:17:28.296Z,28.70
2023-03-29T11:20:48.056Z,26.54
2023-03-29T11:24:10.376Z,28.25
2023-03-29T11:27:33.299Z,27.91
2023-03-29T11:30:52.224Z,27.86
2023-03-29T11:34:16.535Z,28.60
2023-03-29T11:37:35.985Z,28.24
2023-03-29T11:40:58.000Z,28.86
2023-03-29T11:44:16.659Z,29.06
2023-03-29T11:47:33.498Z,27.74
2023-03-29T11:50:52.649Z,28.29
2023-03-29T11:54:15.013Z,27.75
2023-03-29T11:57:33.452Z,28.13
2023-03-29T12:00:49.293Z,29.26
2023-03-29T12:04:05.795Z,27.38
2023-03-29T13:27:43.226Z,28.51
2023-03-29T13:34:42.125Z,30.01
2023-03-29T13:41:39.995Z,28.65
2023-03-29T13:44:54.717Z,30.23
2023-03-29T13:48:29.583Z,28.70
2023-03-29T13:51:47.140Z,29.92
2023-03-29T13:55:04.186Z,29.82
2023-03-29T14:04:53.781Z,30.02
2023-03-29T14:08:13.192Z,31.18
2023-03-29T14:11:31.525Z,30.08
2023-03-29T14:14:58.364Z,30.62
2023-03-29T14:18:05.623Z,30.02
2023-03-29T14:21:17.673Z,30.99
2023-03-29T14:24:36.469Z,31.09
2023-03-29T14:27:49.564Z,31.19
2023-03-29T14:31:02.782Z,31.40
2023-03-29T14:34:26.971Z,31.76
2023-03-29T14:37:39.369Z,32.81
2023-03-29T14:40:53.542Z,32.40
2023-03-29T14:44:07.168Z,32.53
2023-03-29T14:47:28.321Z,33.21
2023-03-29T14:50:41.933Z,33.38
2023-03-29T14:53:55.293Z,34.10
2023-03-29T14:57:10.701Z,35.47
2023-03-29T15:00:35.253Z,35.60
2023-03-29T15:03:59.640Z,37.03
2023-03-29T15:07:12.632Z,35.53
2023-03-29T15:10:26.093Z,36.65
2023-03-29T15:13:39.046Z,37.27
2023-03-29T15:16:54.410Z,36.63
2023-03-29T15:20:15.986Z,37.25
2023-03-29T15:23:40.732Z,36.91
2023-03-29T15:27:05.760Z,36.13
2023-03-29T15:30:22.238Z,36.70
2023-03-29T15:33:41.863Z,35.98
2023-03-29T15:36:54.966Z,36.92
2023-03-29T15:40:09.933Z,39.04
2023-03-29T15:43:23.855Z,38.19
2023-03-29T15:46:36.482Z,38.30
2023-03-29T15:49:49.060Z,38.21
2023-03-29T15:53:14.170Z,38.83
2023-03-29T15:56:23.136Z,38.92
2023-03-29T15:59:36.675Z,39.66
2023-03-29T16:02:49.629Z,39.36
2023-03-29T16:06:04.848Z,39.01
2023-03-29T16:09:17.807Z,39.16
2023-03-29T16:12:33.378Z,40.38
2023-03-29T16:15:49.501Z,39.69
2023-03-29T16:19:01.804Z,40.55
2023-03-29T16:22:14.606Z,39.53
2023-03-29T16:25:27.696Z,39.33
2023-03-29T16:28:40.142Z,39.24
2023-03-29T16:31:53.601Z,39.37
2023-03-29T16:35:06.010Z,39.87
2023-03-29T16:38:18.517Z,40.12
2023-03-29T16:41:32.044Z,40.11
2023-03-29T16:44:44.754Z,40.61
2023-03-29T16:47:57.224Z,40.79
2023-03-29T16:51:11.425Z,40.36
2023-03-29T16:54:25.905Z,41.81
2023-03-29T16:57:39.065Z,41.58
2023-03-29T17:00:52.264Z,41.68
2023-03-29T17:04:04.543Z,41.72
2023-03-29T17:07:16.857Z,44.66
2023-03-29T17:10:29.847Z,47.30
2023-03-29T17:13:42.315Z,47.18
2023-03-29T17:16:54.666Z,47.13
2023-03-29T17:20:08.749Z,49.82
2023-03-29T17:23:21.346Z,47.41
2023-03-29T17:26:33.943Z,48.86
2023-03-29T17:29:46.242Z,50.40
2023-03-29T17:32:58.895Z,48.84
2023-03-29T17:36:13.890Z,48.52
2023-03-29T17:39:27.350Z,48.88
2023-03-29T17:42:39.958Z,48.00
2023-03-29T17:45:54.205Z,48.68
2023-03-29T17:49:07.060Z,51.70
2023-03-29T17:52:19.708Z,49.96
2023-03-29T17:55:32.050Z,52.79
2023-03-29T17:58:44.556Z,52.90
2023-03-29T18:01:57.726Z,53.26
2023-03-29T18:05:11.597Z,53.80
2023-03-29T18:08:24.358Z,54.40
2023-03-29T18:11:37.384Z,55.40
2023-03-29T18:14:49.897Z,56.22
2023-03-29T18:18:02.379Z,56.76
2023-03-29T18:21:15.656Z,57.59
2023-03-29T18:24:27.976Z,58.19
2023-03-29T18:27:40.297Z,58.52
2023-03-29T18:30:56.175Z,59.61
2023-03-29T18:34:08.603Z,60.15
2023-03-29T18:37:21.185Z,60.88
2023-03-29T18:40:34.903Z,61.53
2023-03-29T18:43:47.854Z,62.34
2023-03-29T18:47:00.368Z,62.29
2023-03-29T18:50:15.299Z,63.13
2023-03-29T18:53:27.893Z,63.52
2023-03-29T18:56:40.165Z,63.90
2023-03-29T18:59:52.808Z,64.58
2023-03-29T19:03:05.240Z,64.23
2023-03-29T19:06:18.028Z,64.22
2023-03-29T19:09:31.960Z,64.82
2023-03-29T19:12:44.771Z,65.47
2023-03-29T19:15:57.197Z,65.62
2023-03-29T19:19:10.938Z,65.42
2023-03-29T19:22:23.173Z,65.64
2023-03-29T19:25:36.909Z,65.88
2023-03-29T19:28:49.558Z,66.26
2023-03-29T19:32:01.909Z,66.22
2023-03-29T19:35:17.092Z,66.23
2023-03-29T19:38:29.712Z,66.41
2023-03-29T19:41:42.145Z,66.04
2023-03-29T19:44:54.775Z,66.70
2023-03-29T19:48:07.377Z,66.57
2023-03-29T19:51:20.044Z,66.51
2023-03-29T19:54:32.375Z,66.86
2023-03-29T19:57:44.678Z,66.79
2023-03-29T20:00:58.260Z,66.25
2023-03-29T20:04:12.060Z,66.26
2023-03-29T20:07:24.768Z,66.33
2023-03-29T20:10:37.446Z,66.34
2023-03-29T20:13:51.663Z,66.08
2023-03-29T20:17:04.684Z,66.13
2023-03-29T20:20:19.138Z,65.41
2023-03-29T20:23:31.799Z,65.42
2023-03-29T20:26:44.373Z,65.50
2023-03-29T20:29:56.725Z,64.92
2023-03-29T20:33:09.287Z,65.23
2023-03-29T20:36:23.329Z,65.83
2023-03-29T20:39:37.391Z,66.04
2023-03-29T20:42:49.925Z,66.33
2023-03-29T20:46:02.365Z,66.58
2023-03-29T20:49:16.492Z,66.83
2023-03-29T20:52:30.006Z,66.83
2023-03-29T20:55:43.028Z,67.44
2023-03-29T20:58:55.868Z,67.83
2023-03-29T21:02:08.917Z,68.69
2023-03-29T21:05:22.017Z,69.06
2023-03-29T21:08:34.727Z,68.86
2023-03-29T21:11:47.233Z,69.01
2023-03-29T21:15:00.622Z,68.86
2023-03-29T21:18:13.397Z,68.94
2023-03-29T21:21:26.325Z,69.40
2023-03-29T21:24:39.643Z,69.20
2023-03-29T21:27:52.075Z,69.64
2023-03-29T21:31:07.564Z,69.35
2023-03-29T21:34:20.086Z,69.46
2023-03-29T21:37:33.133Z,69.84
2023-03-29T21:40:45.505Z,69.67
2023-03-29T21:43:57.833Z,69.67
2023-03-29T21:47:10.209Z,69.86
2023-03-29T21:50:22.619Z,69.98
2023-03-29T21:53:35.002Z,69.79
2023-03-29T21:56:48.415Z,69.49
2023-03-29T22:00:00.982Z,69.85
2023-03-29T22:03:13.365Z,70.02
2023-03-29T22:06:25.712Z,69.96
2023-03-29T22:09:40.938Z,69.88
2023-03-29T22:12:53.501Z,70.23
2023-03-29T22:16:07.861Z,70.42
2023-03-29T22:19:20.242Z,70.74
2023-03-29T22:22:32.433Z,70.65
2023-03-29T22:25:45.039Z,71.12
2023-03-29T22:28:58.225Z,71.03
2023-03-29T22:32:11.506Z,71.05
2023-03-29T22:35:24.362Z,71.20
2023-03-29T22:38:37.354Z,71.26
2023-03-29T22:41:49.624Z,71.31
2023-03-29T22:45:01.746Z,71.38
2023-03-29T22:48:14.278Z,71.21
2023-03-29T22:51:27.451Z,70.92
2023-03-29T22:54:39.837Z,71.20
2023-03-29T22:57:51.958Z,71.28
2023-03-29T23:01:05.206Z,71.23
2023-03-29T23:04:18.214Z,71.76
2023-03-29T23:07:30.521Z,71.46
2023-03-29T23:10:42.638Z,71.63
2023-03-29T23:13:55.454Z,71.41
2023-03-29T23:17:09.512Z,71.38
2023-03-29T23:20:22.676Z,71.03
2023-03-29T23:23:35.806Z,71.12
2023-03-29T23:26:49.244Z,70.64
2023-03-29T23:30:01.940Z,70.61
2023-03-29T23:33:15.141Z,70.58
2023-03-29T23:36:29.422Z,70.30
2023-03-29T23:39:42.109Z,70.24
2023-03-29T23:42:56.583Z,70.10
2023-03-29T23:46:11.391Z,69.88
2023-03-29T23:49:24.479Z,69.98
2023-03-29T23:52:38.217Z,70.13
2023-03-29T23:55:51.550Z,69.37
2023-03-29T23:59:04.787Z,69.89
